Time;durP1;ratioP1;P1;durP2;ratioP2;P2;SDS_P1;SDS_P2;PMS_P1;PMS_P2;Temp;Humidity;BMP_temperature;BMP_pressure;BME280_temperature;BME280_humidity;BME280_pressure;Samples;Min_cycle;Max_cycle;Signal;HPM_P1;HPM_P2
2023/01/09 00:02:27;;;;;;;4.80;0.90;;;;;;;5.97;100.00;99226.00;5258501;28;20040;-71
2023/01/09 00:04:59;;;;;;;2.67;0.90;;;;;;;5.95;100.00;99224.41;5254227;28;20036;-71
2023/01/09 00:07:30;;;;;;;2.63;0.60;;;;;;;6.03;100.00;99224.63;5260879;28;20459;-72
2023/01/09 00:10:01;;;;;;;2.20;0.70;;;;;;;5.93;100.00;99239.59;5249915;28;20039;-71
2023/01/09 00:12:33;;;;;;;2.83;0.70;;;;;;;5.88;100.00;99240.78;5250062;28;20527;-71
2023/01/09 00:15:05;;;;;;;1.83;0.52;;;;;;;5.74;100.00;99241.09;5249353;28;20498;-72
2023/01/09 00:17:36;;;;;;;1.48;0.60;;;;;;;5.65;100.00;99239.19;5247763;28;20590;-71
2023/01/09 00:20:10;;;;;;;1.65;0.50;;;;;;;5.64;100.00;99245.47;5250820;28;20083;-71
2023/01/09 00:22:41;;;;;;;2.90;0.68;;;;;;;5.56;100.00;99251.38;5251015;28;20437;-72
2023/01/09 00:25:13;;;;;;;2.97;0.63;;;;;;;5.52;100.00;99257.03;5247076;28;20029;-71
2023/01/09 00:27:44;;;;;;;1.58;0.50;;;;;;;5.44;100.00;99249.72;5254403;28;20075;-71
2023/01/09 00:30:16;;;;;;;2.10;0.70;;;;;;;5.37;100.00;99253.81;5248950;28;20155;-72
2023/01/09 00:32:47;;;;;;;1.90;0.60;;;;;;;5.39;100.00;99251.88;5248257;28;20029;-71
2023/01/09 00:35:19;;;;;;;2.58;0.95;;;;;;;5.32;100.00;99254.19;5248045;28;20408;-71
2023/01/09 00:37:50;;;;;;;2.90;1.00;;;;;;;5.23;100.00;99252.28;5249100;28;20432;-71
2023/01/09 00:40:21;;;;;;;3.78;0.80;;;;;;;5.23;100.00;99257.56;5248579;28;20032;-71
2023/01/09 00:42:55;;;;;;;3.33;0.80;;;;;;;5.21;100.00;99255.03;5248885;28;20562;-71
2023/01/09 00:45:28;;;;;;;2.90;0.77;;;;;;;5.24;100.00;99260.09;5245113;28;20107;-72
2023/01/09 00:48:08;;;;;;;3.17;0.70;;;;;;;5.14;100.00;99259.16;5250448;28;20025;-71
2023/01/09 00:50:40;;;;;;;2.88;0.80;;;;;;;5.08;100.00;99259.63;5249391;28;20033;-71
2023/01/09 00:53:16;;;;;;;4.70;0.80;;;;;;;5.12;100.00;99253.16;5245725;28;20028;-71
2023/01/09 00:55:47;;;;;;;2.22;0.90;;;;;;;5.12;100.00;99258.44;5254127;28;20108;-71
2023/01/09 00:58:18;;;;;;;3.67;0.80;;;;;;;5.01;100.00;99255.81;5248359;28;20047;-71
2023/01/09 01:00:50;;;;;;;3.03;0.70;;;;;;;4.94;100.00;99257.25;5248369;28;20075;-71
2023/01/09 01:03:21;;;;;;;2.15;0.80;;;;;;;4.95;100.00;99258.91;5243208;28;20060;-71
2023/01/09 01:08:44;;;;;;;3.20;0.80;;;;;;;4.89;100.00;99260.28;5246827;28;20029;-71
2023/01/09 01:11:16;;;;;;;4.00;1.08;;;;;;;4.95;100.00;99264.19;5250268;28;21357;-71
2023/01/09 01:13:47;;;;;;;3.40;1.20;;;;;;;4.83;100.00;99266.00;5250189;28;20120;-71
2023/01/09 01:16:18;;;;;;;4.13;1.15;;;;;;;4.81;100.00;99266.13;5248723;28;20027;-71
2023/01/09 01:18:50;;;;;;;4.78;0.93;;;;;;;4.83;100.00;99268.66;5250311;28;20470;-71
2023/01/09 01:21:21;;;;;;;7.38;1.13;;;;;;;4.80;100.00;99269.75;5249235;28;20041;-71
2023/01/09 01:23:53;;;;;;;4.45;1.08;;;;;;;4.81;100.00;99262.66;5247678;28;20029;-71
2023/01/09 01:26:24;;;;;;;4.40;1.20;;;;;;;4.71;100.00;99262.53;5247302;28;20102;-71
2023/01/09 01:28:58;;;;;;;6.00;1.17;;;;;;;4.79;100.00;99283.06;5249540;28;20028;-71
2023/01/09 01:31:29;;;;;;;4.22;1.23;;;;;;;4.75;100.00;99265.78;5241926;28;20544;-71
2023/01/09 01:34:00;;;;;;;4.45;0.90;;;;;;;4.68;100.00;99276.81;5245376;28;20116;-71
2023/01/09 01:36:32;;;;;;;3.90;1.08;;;;;;;4.68;100.00;99284.75;5247745;28;20032;-71
2023/01/09 01:39:03;;;;;;;4.68;1.50;;;;;;;4.71;100.00;99281.00;5241723;28;20577;-71
2023/01/09 01:41:36;;;;;;;4.68;1.20;;;;;;;4.70;100.00;99279.34;5244297;28;20437;-71
2023/01/09 01:44:45;;;;;;;2.95;1.10;;;;;;;4.62;100.00;99287.00;5247759;28;20032;-71
2023/01/09 01:47:19;;;;;;;3.10;0.98;;;;;;;4.58;100.00;99288.19;5250920;28;20160;-71
2023/01/09 01:49:51;;;;;;;3.65;1.42;;;;;;;4.54;100.00;99292.03;5253143;28;20032;-71
2023/01/09 01:52:24;;;;;;;2.78;1.10;;;;;;;4.49;100.00;99290.59;5252170;28;20029;-71
2023/01/09 01:54:55;;;;;;;5.43;1.65;;;;;;;4.51;100.00;99290.50;5251026;28;20098;-71
2023/01/09 01:57:26;;;;;;;2.80;1.08;;;;;;;4.43;100.00;99293.72;5254879;28;20418;-71
2023/01/09 02:00:01;;;;;;;2.58;1.10;;;;;;;4.50;100.00;99284.34;5250524;28;20033;-71
2023/01/09 02:02:33;;;;;;;3.95;1.42;;;;;;;4.41;100.00;99295.63;5248079;28;20025;-70
2023/01/09 02:05:05;;;;;;;3.80;1.10;;;;;;;4.38;100.00;99295.00;5254756;28;20487;-71
2023/01/09 02:07:36;;;;;;;3.35;1.25;;;;;;;4.45;100.00;99302.34;5251749;28;20029;-71
2023/01/09 02:10:08;;;;;;;4.47;1.52;;;;;;;4.37;100.00;99301.25;5250121;28;20286;-71
2023/01/09 02:12:39;;;;;;;6.57;1.50;;;;;;;4.32;100.00;99298.97;5254123;28;20490;-71
2023/01/09 02:15:13;;;;;;;3.80;1.25;;;;;;;4.37;100.00;99291.50;5250370;28;20036;-70
2023/01/09 02:18:07;;;;;;;6.07;1.50;;;;;;;4.29;100.00;99292.09;5251517;28;20052;-71
2023/01/09 02:20:59;;;;;;;5.38;1.23;;;;;;;4.26;100.00;99291.50;5254975;28;20057;-71
2023/01/09 02:24:00;;;;;;;3.65;1.40;;;;;;;4.28;100.00;99289.59;5251556;28;20096;-71
2023/01/09 02:26:35;;;;;;;5.85;1.50;;;;;;;4.32;100.00;99291.03;5252007;28;20029;-70
2023/01/09 02:29:25;;;;;;;4.30;1.45;;;;;;;4.24;100.00;99283.69;5248280;28;20494;-71
2023/01/09 02:32:22;;;;;;;6.93;1.90;;;;;;;4.18;100.00;99291.22;5252590;28;20110;-71
2023/01/09 02:35:23;;;;;;;4.00;1.20;;;;;;;4.20;100.00;99290.16;5252331;28;20056;-70
2023/01/09 02:38:22;;;;;;;4.13;1.33;;;;;;;4.19;100.00;99292.91;5251589;28;20115;-71
2023/01/09 02:41:10;;;;;;;4.03;1.30;;;;;;;4.18;100.00;99288.59;5250691;28;20025;-71
2023/01/09 02:43:41;;;;;;;4.05;1.63;;;;;;;4.15;100.00;99280.91;5250987;28;20122;-70
2023/01/09 02:46:20;;;;;;;4.13;1.40;;;;;;;4.23;100.00;99289.09;5250928;28;20483;-70
2023/01/09 02:48:52;;;;;;;5.65;1.70;;;;;;;4.07;100.00;99290.25;5249751;28;20419;-71
2023/01/09 02:51:39;;;;;;;5.72;1.60;;;;;;;4.06;100.00;99287.72;5251672;28;20062;-71
2023/01/09 02:54:32;;;;;;;4.43;1.65;;;;;;;4.06;100.00;99283.25;5251117;28;20029;-71
2023/01/09 02:57:25;;;;;;;5.68;1.88;;;;;;;3.99;100.00;99283.84;5251731;28;20037;-71
2023/01/09 03:00:06;;;;;;;7.28;1.85;;;;;;;4.01;100.00;99263.44;5245914;28;20036;-71
2023/01/09 03:02:45;;;;;;;4.40;1.77;;;;;;;4.02;100.00;99258.06;5250657;28;20127;-71
2023/01/09 03:05:25;;;;;;;3.92;1.42;;;;;;;3.96;100.00;99265.59;5251330;28;20037;-71
2023/01/09 03:08:05;;;;;;;4.60;1.50;;;;;;;3.96;100.00;99265.59;5248647;28;20036;-71
2023/01/09 03:10:53;;;;;;;7.22;1.90;;;;;;;3.91;100.00;99261.53;5248338;28;20029;-72
2023/01/09 03:13:28;;;;;;;5.63;1.88;;;;;;;3.90;100.00;99259.00;5243960;28;20067;-71
2023/01/09 03:16:05;;;;;;;5.30;1.52;;;;;;;3.91;100.00;99264.16;5249490;28;20427;-71
2023/01/09 03:18:38;;;;;;;5.90;1.98;;;;;;;3.90;100.00;99273.00;5251940;28;20060;-71
2023/01/09 03:21:11;;;;;;;9.45;2.30;;;;;;;3.89;100.00;99279.25;5243029;28;20061;-71
2023/01/09 03:23:51;;;;;;;6.13;1.90;;;;;;;3.87;100.00;99275.03;5250290;28;20546;-71
2023/01/09 03:26:23;;;;;;;6.40;1.83;;;;;;;3.89;100.00;99271.34;5250292;28;20557;-71
2023/01/09 03:28:55;;;;;;;8.55;2.00;;;;;;;3.81;100.00;99283.41;5251977;28;20068;-71
2023/01/09 03:31:26;;;;;;;6.20;1.98;;;;;;;3.84;100.00;99289.31;5246982;28;20049;-70
2023/01/09 03:33:58;;;;;;;7.30;2.17;;;;;;;3.84;100.00;99280.56;5251504;28;20033;-71
2023/01/09 03:36:29;;;;;;;6.03;2.13;;;;;;;3.87;100.00;99285.59;5247444;28;20048;-71
2023/01/09 03:39:00;;;;;;;8.82;2.58;;;;;;;3.81;100.00;99278.97;5246945;28;20028;-71
2023/01/09 03:41:32;;;;;;;9.18;3.70;;;;;;;3.88;100.00;99282.00;5249485;28;20033;-70
2023/01/09 03:44:03;;;;;;;7.15;2.53;;;;;;;3.84;100.00;99273.47;5251260;28;20024;-70
2023/01/09 03:46:34;;;;;;;10.07;2.50;;;;;;;3.86;100.00;99265.44;5248019;28;20025;-71
2023/01/09 03:49:06;;;;;;;8.05;2.42;;;;;;;3.84;100.00;99278.75;5248949;28;20506;-71
2023/01/09 03:51:37;;;;;;;8.30;2.28;;;;;;;3.84;100.00;99277.91;5250433;28;20625;-70
2023/01/09 03:54:08;;;;;;;11.00;2.63;;;;;;;3.85;100.00;99275.13;5250445;28;20032;-71
2023/01/09 03:56:40;;;;;;;11.00;3.17;;;;;;;3.86;100.00;99279.47;5248227;28;20021;-71
2023/01/09 03:59:11;;;;;;;5.97;2.00;;;;;;;3.86;100.00;99284.75;5253233;28;20024;-71
2023/01/09 04:01:42;;;;;;;7.22;2.17;;;;;;;3.90;100.00;99277.47;5246732;28;20028;-71
2023/01/09 04:04:13;;;;;;;8.15;1.92;;;;;;;3.88;100.00;99279.38;5249662;28;20064;-71
2023/01/09 04:06:45;;;;;;;7.30;2.08;;;;;;;3.88;100.00;99279.38;5247535;28;20025;-70
2023/01/09 04:09:16;;;;;;;8.48;2.10;;;;;;;3.92;100.00;99281.66;5246424;28;20037;-71
2023/01/09 04:11:47;;;;;;;7.15;2.00;;;;;;;3.90;100.00;99275.66;5250688;28;20040;-70
2023/01/09 04:14:18;;;;;;;8.15;2.00;;;;;;;3.96;100.00;99279.63;5254368;28;20057;-71
2023/01/09 04:16:50;;;;;;;8.30;1.95;;;;;;;4.03;100.00;99280.03;5249296;28;20033;-71
2023/01/09 04:19:21;;;;;;;7.57;2.15;;;;;;;4.13;100.00;99279.22;5251863;28;20083;-70
2023/01/09 04:21:52;;;;;;;7.97;1.92;;;;;;;4.10;100.00;99270.69;5243051;28;20028;-71
2023/01/09 04:24:23;;;;;;;7.30;2.22;;;;;;;4.17;100.00;99279.00;5246997;28;20331;-71
2023/01/09 04:26:55;;;;;;;7.63;2.50;;;;;;;4.20;100.00;99279.63;5247650;28;20040;-71
2023/01/09 04:29:26;;;;;;;6.28;2.10;;;;;;;4.25;100.00;99279.25;5250212;28;20032;-71
2023/01/09 04:31:57;;;;;;;9.70;2.13;;;;;;;4.32;100.00;99286.59;5248124;28;20020;-71
2023/01/09 04:34:29;;;;;;;10.40;2.00;;;;;;;4.32;100.00;99286.59;5246562;28;20033;-71
2023/01/09 04:37:00;;;;;;;7.30;2.10;;;;;;;4.36;100.00;99275.81;5245367;28;20318;-71
2023/01/09 04:39:31;;;;;;;7.03;2.10;;;;;;;4.40;100.00;99279.91;5247340;28;20382;-71
2023/01/09 04:42:03;;;;;;;6.93;2.00;;;;;;;4.42;100.00;99284.09;5247862;28;20029;-71
2023/01/09 04:44:34;;;;;;;6.10;1.67;;;;;;;4.45;100.00;99278.59;5249501;28;20526;-71
2023/01/09 04:47:05;;;;;;;5.68;2.10;;;;;;;4.51;100.00;99277.28;5248911;28;20025;-70
2023/01/09 04:49:37;;;;;;;8.32;1.52;;;;;;;4.61;100.00;99285.34;5249252;28;20068;-71
2023/01/09 04:52:08;;;;;;;6.68;1.83;;;;;;;4.62;100.00;99285.22;5248391;28;20037;-71
2023/01/09 04:54:39;;;;;;;8.95;1.95;;;;;;;4.63;100.00;99291.34;5243420;28;20100;-71
2023/01/09 04:57:11;;;;;;;8.27;2.05;;;;;;;4.65;100.00;99278.84;5244825;28;20119;-71
2023/01/09 04:59:42;;;;;;;6.38;1.92;;;;;;;4.64;100.00;99277.16;5247831;28;20032;-70
2023/01/09 05:02:13;;;;;;;6.65;1.63;;;;;;;4.66;100.00;99267.31;5250880;28;20067;-71
2023/01/09 05:04:44;;;;;;;7.47;1.95;;;;;;;4.66;100.00;99276.09;5252380;28;20175;-71
2023/01/09 05:07:16;;;;;;;8.77;2.10;;;;;;;4.70;100.00;99282.00;5245808;28;20029;-71
2023/01/09 05:09:47;;;;;;;7.82;2.17;;;;;;;4.73;100.00;99281.72;5249157;28;20035;-70
2023/01/09 05:12:18;;;;;;;6.22;2.20;;;;;;;4.72;100.00;99270.34;5248056;28;20037;-71
2023/01/09 05:14:50;;;;;;;13.30;2.40;;;;;;;4.80;100.00;99277.66;5248825;28;20475;-70
2023/01/09 05:17:21;;;;;;;9.38;2.13;;;;;;;4.81;100.00;99274.03;5249640;28;20487;-70
2023/01/09 05:19:52;;;;;;;11.60;2.35;;;;;;;4.83;100.00;99273.94;5248320;28;20506;-70
2023/01/09 05:22:23;;;;;;;10.15;2.20;;;;;;;4.86;100.00;99276.34;5253186;28;21427;-71
2023/01/09 05:24:55;;;;;;;9.48;2.40;;;;;;;4.89;100.00;99276.94;5253988;28;20398;-71
2023/01/09 05:27:26;;;;;;;10.07;2.00;;;;;;;4.92;100.00;99275.88;5252987;28;20056;-70
2023/01/09 05:29:57;;;;;;;7.95;2.45;;;;;;;4.93;100.00;99267.00;5251715;28;20039;-71
2023/01/09 05:32:29;;;;;;;8.20;2.20;;;;;;;4.98;100.00;99262.16;5249883;28;20044;-71
2023/01/09 05:35:00;;;;;;;10.85;2.45;;;;;;;4.99;100.00;99271.78;5250587;28;20540;-71
2023/01/09 05:37:31;;;;;;;13.40;2.95;;;;;;;5.01;100.00;99264.56;5252484;28;20021;-71
2023/01/09 05:40:03;;;;;;;5.93;1.90;;;;;;;5.02;100.00;99260.94;5252211;28;20037;-71
2023/01/09 05:42:34;;;;;;;11.27;2.60;;;;;;;5.05;100.00;99252.78;5250899;28;20131;-71
2023/01/09 05:45:06;;;;;;;8.50;1.98;;;;;;;5.16;100.00;99253.72;5255797;28;20565;-70
2023/01/09 05:47:37;;;;;;;8.95;2.60;;;;;;;5.08;100.00;99249.06;5249903;28;20033;-72
2023/01/09 05:50:10;;;;;;;12.05;2.53;;;;;;;5.11;100.00;99247.00;5241600;28;20519;-71
2023/01/09 05:52:41;;;;;;;7.50;1.92;;;;;;;5.18;100.00;99247.38;5248975;28;20029;-71
2023/01/09 05:55:13;;;;;;;7.72;2.00;;;;;;;5.16;100.00;99251.94;5253486;28;20037;-71
2023/01/09 05:57:44;;;;;;;9.13;2.00;;;;;;;5.27;100.00;99251.94;5251472;28;20020;-71
2023/01/09 06:00:16;;;;;;;6.50;2.00;;;;;;;5.18;100.00;99250.03;5246719;28;20528;-71
2023/01/09 06:02:47;;;;;;;6.60;1.70;;;;;;;5.21;100.00;99241.81;5243911;28;20033;-71
2023/01/09 06:05:18;;;;;;;8.55;1.98;;;;;;;5.23;100.00;99247.00;5246582;28;20471;-72
2023/01/09 06:07:50;;;;;;;8.45;1.40;;;;;;;5.26;100.00;99249.41;5247258;28;20620;-71
2023/01/09 06:10:21;;;;;;;11.27;1.95;;;;;;;5.25;100.00;99239.78;5255269;28;20158;-71
2023/01/09 06:12:53;;;;;;;8.57;2.70;;;;;;;5.27;100.00;99244.00;5250507;28;20593;-71
2023/01/09 06:15:24;;;;;;;7.60;1.92;;;;;;;5.36;100.00;99244.22;5244524;28;20881;-71
2023/01/09 06:17:56;;;;;;;10.02;2.33;;;;;;;5.32;100.00;99237.50;5250582;28;20135;-72
2023/01/09 06:20:27;;;;;;;9.10;1.88;;;;;;;5.36;100.00;99245.06;5244616;28;20064;-71
2023/01/09 06:22:58;;;;;;;12.48;2.67;;;;;;;5.38;100.00;99243.13;5248715;28;20058;-71
2023/01/09 06:25:29;;;;;;;9.38;1.70;;;;;;;5.45;100.00;99251.41;5247509;28;20033;-71
2023/01/09 06:28:01;;;;;;;6.47;2.10;;;;;;;5.41;100.00;99244.69;5247189;28;20475;-71
2023/01/09 06:30:33;;;;;;;10.90;2.50;;;;;;;5.47;100.00;99252.13;5246342;28;20052;-71
2023/01/09 06:33:04;;;;;;;6.90;2.25;;;;;;;5.44;100.00;99247.06;5248130;28;20048;-71
2023/01/09 06:35:35;;;;;;;10.20;2.38;;;;;;;5.45;100.00;99257.53;5249523;28;20064;-71
2023/01/09 06:38:06;;;;;;;8.05;1.95;;;;;;;5.47;100.00;99254.78;5249117;28;20025;-70
2023/01/09 06:40:38;;;;;;;9.88;2.08;;;;;;;5.53;100.00;99264.03;5249122;28;20028;-71
2023/01/09 06:43:09;;;;;;;9.23;1.88;;;;;;;5.54;100.00;99260.41;5254064;28;20037;-71
2023/01/09 06:45:44;;;;;;;10.65;2.38;;;;;;;5.53;100.00;99253.44;5249206;28;20153;-71
2023/01/09 06:48:15;;;;;;;;;;;;;;;5.57;100.00;99258.34;5254469;28;20411;-71
2023/01/09 06:50:47;;;;;;;6.20;1.52;;;;;;;5.56;100.00;99261.09;5254152;28;19917;-71
2023/01/09 06:53:19;;;;;;;13.98;3.10;;;;;;;5.57;100.00;99263.63;5251188;28;20466;-71
2023/01/09 06:55:50;;;;;;;10.80;2.30;;;;;;;5.61;100.00;99261.59;5254087;28;20025;-72
2023/01/09 06:58:21;;;;;;;11.82;1.70;;;;;;;5.61;100.00;99264.22;5253437;28;20043;-72
2023/01/09 07:00:55;;;;;;;12.10;2.70;;;;;;;5.64;100.00;99271.94;5248654;28;20459;-71
2023/01/09 07:03:26;;;;;;;10.85;1.80;;;;;;;5.65;100.00;99276.25;5254147;28;20052;-71
2023/01/09 07:05:57;;;;;;;9.10;1.92;;;;;;;5.67;100.00;99275.13;5247966;28;20029;-71
2023/01/09 07:08:29;;;;;;;8.20;1.95;;;;;;;5.69;100.00;99280.31;5252957;28;20040;-71
2023/01/09 07:11:00;;;;;;;8.23;1.83;;;;;;;5.74;100.00;99287.91;5253105;28;20032;-71
2023/01/09 07:13:31;;;;;;;9.13;1.50;;;;;;;5.73;100.00;99289.69;5254720;28;20638;-72
2023/01/09 07:16:04;;;;;;;8.48;1.73;;;;;;;5.76;100.00;99289.44;5249789;28;20490;-71
2023/01/09 07:18:35;;;;;;;10.68;1.95;;;;;;;5.75;100.00;99287.75;5248846;28;20028;-71
2023/01/09 07:21:07;;;;;;;10.07;1.88;;;;;;;5.74;100.00;99288.72;5253756;28;20045;-71
2023/01/09 07:23:38;;;;;;;8.63;2.00;;;;;;;5.75;100.00;99294.84;5256638;28;20037;-71
2023/01/09 07:26:09;;;;;;;9.63;2.08;;;;;;;5.76;100.00;99297.38;5254762;28;20077;-71
2023/01/09 07:28:41;;;;;;;11.73;2.17;;;;;;;5.76;100.00;99307.13;5254897;28;20029;-72
2023/01/09 07:31:12;;;;;;;12.52;2.30;;;;;;;5.72;100.00;99306.53;5248919;28;20029;-70
2023/01/09 07:33:43;;;;;;;6.70;1.95;;;;;;;5.73;100.00;99310.84;5248375;28;20499;-70
2023/01/09 07:36:14;;;;;;;10.25;2.35;;;;;;;5.74;100.00;99324.94;5246567;28;20037;-71
2023/01/09 07:38:46;;;;;;;9.52;2.00;;;;;;;5.70;100.00;99335.75;5249771;28;20024;-71
2023/01/09 07:41:17;;;;;;;13.45;2.80;;;;;;;5.72;100.00;99332.16;5249807;28;20021;-71
2023/01/09 07:43:48;;;;;;;8.90;2.55;;;;;;;5.69;100.00;99334.09;5250569;28;20020;-71
2023/01/09 07:46:19;;;;;;;8.98;2.40;;;;;;;5.69;100.00;99327.94;5246241;28;20501;-71
2023/01/09 07:48:51;;;;;;;9.18;3.28;;;;;;;5.70;100.00;99341.06;5251899;28;20021;-71
2023/01/09 07:51:22;;;;;;;8.25;2.28;;;;;;;5.72;100.00;99342.75;5251603;28;20385;-72
2023/01/09 07:53:53;;;;;;;9.85;2.50;;;;;;;5.70;100.00;99353.47;5253149;28;20028;-71
2023/01/09 07:56:25;;;;;;;9.45;2.63;;;;;;;5.69;100.00;99357.06;5246289;28;20025;-71
2023/01/09 07:58:56;;;;;;;7.75;2.22;;;;;;;5.68;100.00;99358.88;5250399;28;20054;-71
2023/01/09 08:01:27;;;;;;;12.15;2.80;;;;;;;5.70;100.00;99356.09;5244452;28;21044;-71
2023/01/09 08:03:58;;;;;;;9.77;2.60;;;;;;;5.72;100.00;99363.91;5244074;28;20082;-71
2023/01/09 08:06:30;;;;;;;12.10;2.90;;;;;;;5.71;100.00;99368.34;5280028;28;20463;-71
2023/01/09 08:09:01;;;;;;;10.93;2.65;;;;;;;5.72;100.00;99370.03;5250959;28;20039;-71
2023/01/09 08:11:33;;;;;;;10.63;2.42;;;;;;;5.74;100.00;99377.88;5243202;28;20534;-71
2023/01/09 08:14:04;;;;;;;7.10;2.67;;;;;;;5.72;100.00;99377.16;5251518;28;20024;-71
2023/01/09 08:16:35;;;;;;;7.78;2.92;;;;;;;5.71;100.00;99365.72;5247320;28;20029;-71
2023/01/09 08:19:07;;;;;;;11.07;3.45;;;;;;;5.71;100.00;99384.22;5247709;28;20029;-71
2023/01/09 08:21:38;;;;;;;8.15;2.70;;;;;;;5.73;100.00;99392.06;5244740;28;20126;-71
2023/01/09 08:24:10;;;;;;;8.60;2.90;;;;;;;5.70;100.00;99399.28;5241322;28;20057;-71
2023/01/09 08:26:41;;;;;;;10.27;2.88;;;;;;;5.70;100.00;99404.56;5247476;28;20047;-70
2023/01/09 08:29:12;;;;;;;9.52;3.35;;;;;;;5.72;100.00;99411.56;5250715;28;20059;-71
2023/01/09 08:31:43;;;;;;;8.77;3.03;;;;;;;5.73;100.00;99414.06;5244258;28;20037;-71
2023/01/09 08:34:15;;;;;;;9.93;3.70;;;;;;;5.73;100.00;99414.06;5241624;28;21369;-70
2023/01/09 08:36:46;;;;;;;10.60;3.63;;;;;;;5.73;100.00;99429.09;5248651;28;20703;-70
2023/01/09 08:39:17;;;;;;;10.00;3.13;;;;;;;5.77;100.00;99433.19;5248945;28;20044;-71
2023/01/09 08:47:32;;;;;;;9.35;3.20;;;;;;;5.74;100.00;99438.75;5245741;28;20033;-71
2023/01/09 08:50:04;;;;;;;9.23;2.83;;;;;;;5.73;100.00;99437.88;5250074;28;20078;-71
2023/01/09 08:52:35;;;;;;;8.98;3.25;;;;;;;5.71;100.00;99439.81;5242842;28;20071;-71
2023/01/09 08:55:07;;;;;;;7.70;2.88;;;;;;;5.73;100.00;99460.84;5250459;28;20115;-71
2023/01/09 08:57:52;;;;;;;11.32;3.28;;;;;;;5.74;100.00;99467.84;5253863;28;20029;-71
2023/01/09 09:00:23;;;;;;;;;;;;;;;5.75;100.00;99465.06;5250493;28;20081;-71
2023/01/09 09:02:57;;;;;;;10.43;2.95;;;;;;;5.73;100.00;99474.09;5248628;28;19925;-70
2023/01/09 09:05:30;;;;;;;9.38;3.05;;;;;;;5.74;100.00;99476.63;5248852;28;20112;-71
2023/01/09 09:08:02;;;;;;;8.57;3.33;;;;;;;5.76;100.00;99490.56;5252285;28;20025;-71
2023/01/09 09:10:34;;;;;;;10.98;3.33;;;;;;;5.72;100.00;99491.78;5251180;28;20024;-71
2023/01/09 09:13:05;;;;;;;8.05;3.30;;;;;;;5.73;100.00;99497.91;5255439;28;20035;-71
2023/01/09 09:15:37;;;;;;;8.35;3.00;;;;;;;5.74;100.00;99499.59;5250035;28;20025;-71
2023/01/09 09:18:09;;;;;;;9.18;3.47;;;;;;;5.73;100.00;99513.78;5254578;28;20166;-71
2023/01/09 09:20:40;;;;;;;8.98;3.50;;;;;;;5.74;100.00;99518.97;5252064;28;20083;-71
2023/01/09 09:23:11;;;;;;;8.30;2.95;;;;;;;5.75;100.00;99517.16;5253035;28;20025;-71
2023/01/09 09:25:43;;;;;;;10.00;3.30;;;;;;;5.76;100.00;99518.84;5252989;28;20112;-71
2023/01/09 09:28:14;;;;;;;8.88;3.40;;;;;;;5.77;100.00;99529.31;5253235;28;20028;-71
2023/01/09 09:30:45;;;;;;;7.68;3.20;;;;;;;5.82;100.00;99526.31;5255114;28;20032;-72
2023/01/09 09:33:17;;;;;;;11.75;3.53;;;;;;;5.78;100.00;99532.81;5249040;28;20572;-71
2023/01/09 09:35:48;;;;;;;10.90;3.55;;;;;;;5.80;100.00;99537.00;5250316;28;20490;-71
2023/01/09 09:38:19;;;;;;;9.30;3.80;;;;;;;5.80;100.00;99549.41;5253183;28;20043;-71
2023/01/09 09:41:07;;;;;;;11.65;3.80;;;;;;;5.82;100.00;99550.13;5253291;28;20543;-71
2023/01/09 09:46:46;;;;;;;10.55;3.92;;;;;;;5.81;100.00;99565.16;5250132;28;20489;-71
2023/01/09 09:49:29;;;;;;;9.25;3.63;;;;;;;5.81;100.00;99562.53;5247330;28;20545;-71
2023/01/09 09:52:19;;;;;;;12.60;4.07;;;;;;;5.81;100.00;99570.47;5249534;28;20066;-71
2023/01/09 09:54:51;;;;;;;10.38;4.03;;;;;;;5.83;100.00;99572.97;5252465;28;20025;-71
2023/01/09 09:57:28;;;;;;;11.95;4.70;;;;;;;5.81;100.00;99582.84;5250919;28;20044;-70
2023/01/09 10:00:01;;;;;;;14.50;4.80;;;;;;;5.83;100.00;99594.16;5253677;28;20064;-71
2023/01/09 10:02:45;;;;;;;10.88;4.60;;;;;;;5.85;100.00;99602.84;5252366;28;20119;-71
2023/01/09 10:05:24;;;;;;;;;;;;;;;5.87;100.00;99599.09;5253286;28;20033;-71
2023/01/09 10:08:19;;;;;;;10.55;4.57;;;;;;;5.86;100.00;99615.09;5245906;28;20191;-71
2023/01/09 10:10:53;;;;;;;11.88;4.80;;;;;;;5.87;100.00;99620.28;5246110;28;20052;-71
2023/01/09 10:16:39;;;;;;;10.82;4.95;;;;;;;5.92;100.00;99627.84;5251318;28;20553;-71
2023/01/09 10:19:18;;;;;;;14.00;5.82;;;;;;;5.93;100.00;99628.72;5250144;28;20119;-71
2023/01/09 10:22:35;;;;;;;12.60;5.53;;;;;;;5.96;100.00;99631.97;5252344;28;20526;-71
2023/01/09 10:25:29;;;;;;;14.20;5.72;;;;;;;5.98;100.00;99638.00;5252423;28;20033;-71
2023/01/09 10:28:09;;;;;;;15.65;6.60;;;;;;;6.03;100.00;99640.31;5249868;28;20028;-71
2023/01/09 10:30:44;;;;;;;11.73;5.80;;;;;;;6.02;100.00;99650.06;5251718;28;20049;-71
2023/01/09 10:33:35;;;;;;;13.73;6.38;;;;;;;6.06;100.00;99642.72;5255018;28;20568;-71
2023/01/09 10:36:36;;;;;;;11.40;4.80;;;;;;;6.05;100.00;99648.97;5244409;28;20529;-71
2023/01/09 10:39:18;;;;;;;12.50;5.40;;;;;;;6.04;100.00;99649.94;5251812;28;20029;-70
2023/01/09 10:41:55;;;;;;;13.98;5.63;;;;;;;6.06;100.00;99650.69;5247816;28;20120;-71
2023/01/09 10:44:38;;;;;;;10.30;4.97;;;;;;;6.09;100.00;99645.97;5246589;28;21100;-71
2023/01/09 10:47:19;;;;;;;10.57;5.05;;;;;;;6.07;100.00;99644.41;5248340;28;20735;-71
2023/01/09 10:49:51;;;;;;;10.50;4.90;;;;;;;6.05;100.00;99644.50;5246223;28;20110;-71
2023/01/09 10:52:40;;;;;;;11.93;5.18;;;;;;;6.02;100.00;99650.06;5250596;28;20146;-71
2023/01/09 10:55:38;;;;;;;9.15;4.50;;;;;;;5.99;100.00;99652.94;5246691;28;20040;-71
2023/01/09 10:58:12;;;;;;;14.10;5.30;;;;;;;6.00;100.00;99662.59;5250606;28;20040;-72
2023/01/09 11:00:44;;;;;;;10.07;5.45;;;;;;;6.05;100.00;99667.50;5250782;28;20029;-71
2023/01/09 11:03:19;;;;;;;12.68;5.72;;;;;;;6.14;100.00;99666.81;5251446;28;20063;-72
2023/01/09 11:05:53;;;;;;;12.70;5.20;;;;;;;6.19;100.00;99679.69;5248265;28;20025;-72
2023/01/09 11:08:33;;;;;;;12.05;5.50;;;;;;;6.30;100.00;99674.41;5251625;28;20297;-72
2023/01/09 11:11:05;;;;;;;10.82;6.18;;;;;;;6.24;100.00;99670.44;5250855;28;20384;-72
2023/01/09 11:13:45;;;;;;;13.40;5.45;;;;;;;6.26;100.00;99676.44;5252792;28;20125;-72
2023/01/09 11:16:20;;;;;;;12.05;5.50;;;;;;;6.23;100.00;99673.19;5248766;28;20028;-72
2023/01/09 11:18:54;;;;;;;;;;;;;;;6.26;100.00;99675.63;5253987;28;20021;-72
2023/01/09 11:21:40;;;;;;;9.95;5.40;;;;;;;6.21;100.00;99677.75;5251207;28;19925;-72
2023/01/09 11:24:17;;;;;;;14.55;6.00;;;;;;;6.20;100.00;99686.69;5246707;28;20072;-72
2023/01/09 11:26:50;;;;;;;12.93;6.57;;;;;;;6.22;100.00;99680.28;5247359;28;20113;-72
2023/01/09 11:29:25;;;;;;;13.00;6.80;;;;;;;6.20;100.00;99682.22;5254088;28;20481;-71
2023/01/09 11:31:58;;;;;;;14.30;6.55;;;;;;;6.24;100.00;99694.25;5248433;28;20119;-72
2023/01/09 11:34:31;;;;;;;13.05;6.63;;;;;;;6.27;100.00;99690.53;5251306;28;20140;-72
2023/01/09 11:37:14;;;;;;;13.73;6.85;;;;;;;6.28;100.00;99705.47;5251371;28;20120;-72
2023/01/09 11:39:46;;;;;;;14.85;6.47;;;;;;;6.28;100.00;99706.31;5248378;28;20376;-71
2023/01/09 11:43:06;;;;;;;11.63;6.13;;;;;;;6.31;100.00;99710.53;5251942;28;20041;-72
2023/01/09 11:45:50;;;;;;;13.13;6.78;;;;;;;6.34;100.00;99710.28;5243607;28;20502;-72
2023/01/09 11:48:31;;;;;;;14.07;5.97;;;;;;;6.39;100.00;99729.34;5249932;28;20057;-72
2023/01/09 11:51:19;;;;;;;15.68;6.88;;;;;;;6.40;100.00;99717.75;5247846;28;20025;-72
2023/01/09 11:54:13;;;;;;;15.00;7.10;;;;;;;6.45;100.00;99725.38;5249264;28;20036;-72
2023/01/09 11:56:45;;;;;;;13.90;6.95;;;;;;;6.41;100.00;99719.47;5247383;28;20029;-72
2023/01/09 11:59:20;;;;;;;14.27;6.65;;;;;;;6.40;100.00;99725.69;5245316;28;20102;-72
2023/01/09 12:02:02;;;;;;;;;;;;;;;6.45;100.00;99718.25;5247332;28;20025;-72
2023/01/09 12:04:43;;;;;;;15.02;6.88;;;;;;;6.41;100.00;99714.16;5249753;28;19920;-72
2023/01/09 12:07:40;;;;;;;13.98;6.45;;;;;;;6.43;100.00;99714.06;5246517;28;20487;-71
2023/01/09 12:10:43;;;;;;;13.35;5.82;;;;;;;6.44;100.00;99719.22;5246701;28;20108;-71
2023/01/09 12:13:24;;;;;;;14.77;5.93;;;;;;;6.46;100.00;99721.75;5242484;28;20037;-72
2023/01/09 12:16:08;;;;;;;13.35;5.45;;;;;;;6.44;100.00;99723.66;5246351;28;20124;-72
2023/01/09 12:19:07;;;;;;;11.68;5.30;;;;;;;6.42;100.00;99718.50;5249709;28;20041;-71
2023/01/09 12:21:55;;;;;;;13.18;6.03;;;;;;;6.45;100.00;99723.56;5245922;28;20148;-72
2023/01/09 12:24:38;;;;;;;12.73;5.57;;;;;;;6.45;100.00;99726.19;5248931;28;20068;-72